Latest Weather Observations for Richmond

IDN60801

Issued at 4:35 am EST Tuesday 29 July 2014 (issued every 30 minutes, with the page automatically refreshed every 10 minutes)

About weather observations | Map of weather stations | Latest weather observations for NSW | Other Formats
Station Details ID: 067105 Name: RICHMOND RAAF Lat: -33.60 Lon: 150.78 Height: 19.0 m
Data from the previous 72 hours. | See also: Recent months at Richmond
Date/Time
EST
Temp
°C
App
Temp
°C
Dew
Point
Rel
Hum
%
Delta-T
°C
Wind Press
QNH
hPa
Press
MSL
hPa
Rain
since 9 am
mm
Dir
 
Spd
km/h
Gust
km/h
Spd
kts
Gust
kts
29/04:30am 12.4 8.1 5.1 61 3.4 NNW 17 22 9 12 1018.0 - 0.0
29/04:00am 12.1 8.2 5.3 63 3.1 NNW 15 20 8 11 1017.9 1017.9 0.0
29/03:30am 11.8 7.5 5.2 64 3.0 NW 17 20 9 11 1018.1 - 0.0
29/03:00am 11.5 8.4 5.4 66 2.8 NNW 11 15 6 8 1017.9 1017.9 0.0
29/02:30am 11.3 8.6 5.6 68 2.6 NW 9 15 5 8 1018.2 - 0.0
29/02:00am 11.4 8.7 5.5 67 2.7 NNW 9 13 5 7 1018.3 1018.3 0.0
29/01:30am 12.5 8.2 5.4 62 3.3 NNW 17 19 9 10 1018.2 - 0.0
29/01:00am 10.9 8.2 5.4 69 2.5 NNE 9 11 5 6 1018.3 1018.3 0.0
29/12:30am 11.5 7.3 5.6 67 2.7 NNE 17 19 9 10 1018.3 - 0.0
29/12:00am 12.3 8.1 5.7 64 3.1 NE 17 22 9 12 1018.6 1018.6 0.0
 
Date/Time
EST
Temp
°C
App
Temp
°C
Dew
Point
Rel
Hum
%
Delta-T
°C
Wind Press
QNH
hPa
Press
MSL
hPa
Rain
since 9 am
mm
Dir
 
Spd
km/h
Gust
km/h
Spd
kts
Gust
kts
28/11:30pm 11.6 8.9 5.7 67 2.7 N 9 13 5 7 1018.9 - 0.0
28/11:00pm 11.6 8.5 5.5 66 2.8 N 11 13 6 7 1019.4 1019.4 0.0
28/10:30pm 11.9 9.1 5.3 64 3.0 N 9 13 5 7 1019.4 - 0.0
28/10:00pm 11.1 8.7 5.4 68 2.6 N 7 9 4 5 1019.7 1019.7 0.0
28/09:30pm 12.5 10.1 5.4 62 3.3 N 7 9 4 5 1019.6 - 0.0
28/09:00pm 12.5 9.9 6.1 65 3.0 N 9 11 5 6 1019.6 1019.6 0.0
28/08:30pm 10.8 8.3 4.7 66 2.8 NNW 7 9 4 5 1019.3 - 0.0
28/08:00pm 13.6 10.4 5.0 56 4.0 NNW 11 13 6 7 1019.3 1019.3 0.0
28/07:30pm 14.0 11.1 4.9 54 4.2 NW 9 11 5 6 1019.1 - 0.0
28/07:00pm 14.8 11.9 4.5 50 4.8 W 9 13 5 7 1019.2 1019.2 0.0
28/06:30pm 15.1 10.7 4.8 50 4.8 W 17 19 9 10 1019.1 - 0.0
28/06:00pm 15.0 12.3 5.8 54 4.4 W 9 17 5 9 1018.7 1018.7 0.0
28/05:30pm 14.9 14.0 6.2 56 4.2 CALM 0 0 0 0 1018.4 - 0.0
28/05:00pm 16.5 13.9 6.3 51 5.0 W 9 13 5 7 1018.3 1018.3 0.0
28/04:30pm 17.2 13.8 5.8 47 5.5 W 13 20 7 11 1017.8 - 0.0
28/04:00pm 17.9 15.2 5.8 45 5.9 NW 9 11 5 6 1017.7 1017.7 0.0
28/03:30pm 18.6 14.1 4.4 39 6.8 WNW 17 20 9 11 1017.7 - 0.0
28/03:00pm 18.7 14.3 4.5 39 6.8 W 17 20 9 11 1017.8 1017.8 0.0
28/02:30pm 18.7 13.2 4.1 38 6.9 WNW 22 30 12 16 1018.1 - 0.0
28/02:00pm 19.0 14.0 4.4 38 7.0 WNW 20 30 11 16 1018.2 1018.2 0.0
28/01:30pm 18.8 14.9 3.4 36 7.2 W 13 20 7 11 1018.3 - 0.0
28/01:00pm 18.1 15.5 4.3 40 6.5 SSW 7 13 4 7 1018.8 1018.8 0.0
28/12:30pm 17.9 14.1 3.8 39 6.6 WSW 13 19 7 10 1019.6 - 0.0
28/12:00pm 17.6 13.6 2.8 37 6.8 WSW 13 19 7 10 1020.1 1020.1 0.0
28/11:30am 17.0 13.5 3.7 41 6.2 WNW 11 19 6 10 1020.4 - 0.0
28/11:00am 16.0 14.3 5.9 51 4.9 WNW 4 13 2 7 1020.9 1020.9 0.0
28/10:30am 14.8 13.4 7.1 60 3.8 NNE 4 9 2 5 1021.2 - 0.0
28/10:00am 12.0 9.7 7.3 73 2.3 NNE 9 11 5 6 1021.6 1021.6 0.0
28/09:30am 10.2 8.5 7.6 84 1.2 N 6 9 3 5 1021.8 - 0.0
28/09:00am 8.2 6.4 7.0 92 0.6 N 6 7 3 4 1021.9 1021.9 0.0
28/08:30am 6.9 4.9 6.2 95 0.3 N 6 7 3 4 1021.9 - 0.0
28/08:00am 6.0 5.0 5.7 98 0.1 CALM 0 0 0 0 1022.0 1022.0 0.0
28/07:30am 5.0 2.7 4.7 98 0.1 E 6 7 3 4 1021.9 - 0.0
28/07:00am 4.5 1.5 4.2 98 0.1 S 9 11 5 6 1021.8 1021.8 0.0
28/06:30am 4.3 2.6 3.9 97 0.2 WSW 2 11 1 6 1021.3 - 0.0
28/06:00am 5.1 3.9 4.5 96 0.3 NNE 0 7 0 4 1020.9 1020.9 0.0
28/05:30am 4.8 3.5 4.2 96 0.3 CALM 0 0 0 0 1020.7 - 0.0
28/05:00am 5.2 3.7 4.9 98 0.1 NNW 2 6 1 3 1021.0 1021.0 0.0
28/04:30am 5.6 4.2 5.3 98 0.1 NNE 2 6 1 3 1021.3 - 0.0
28/04:00am 5.5 3.3 5.2 98 0.1 NNE 6 9 3 5 1021.3 1021.3 0.0
28/03:37am 5.5 3.1 5.2 98 0.1 NNE 7 9 4 5 1021.5 - 0.0
28/03:30am 5.6 3.2 5.3 98 0.1 NE 7 9 4 5 1021.5 - 0.0
28/03:00am 5.6 3.4 5.3 98 0.1 N 6 9 3 5 1021.5 1021.5 0.0
28/02:30am 4.8 3.6 4.5 98 0.1 CALM 0 4 0 2 1022.1 - 0.0
28/02:00am 5.1 3.6 4.8 98 0.1 NNW 2 7 1 4 1021.9 1021.9 0.0
28/01:37am 4.8 2.2 4.2 96 0.3 N 7 7 4 4 1021.5 - 0.0
28/01:30am 4.5 2.3 3.6 94 0.4 E 4 7 2 4 1021.6 - 0.0
28/01:00am 5.9 3.7 5.3 96 0.3 SSE 6 7 3 4 1022.0 1022.0 0.0
28/12:30am 5.5 2.6 4.8 95 0.3 S 9 11 5 6 1021.8 - 0.0
28/12:00am 6.8 4.7 5.7 93 0.5 E 6 9 3 5 1021.1 1021.1 0.0
 
Date/Time
EST
Temp
°C
App
Temp
°C
Dew
Point
Rel
Hum
%
Delta-T
°C
Wind Press
QNH
hPa
Press
MSL
hPa
Rain
since 9 am
mm
Dir
 
Spd
km/h
Gust
km/h
Spd
kts
Gust
kts
27/11:30pm 7.3 5.1 6.4 94 0.4 NE 7 9 4 5 1021.5 - 0.0
27/11:00pm 6.9 5.9 5.4 90 0.7 CALM 0 0 0 0 1022.2 1022.2 0.0
27/10:30pm 6.8 5.7 5.1 89 0.7 CALM 0 0 0 0 1022.6 - 0.0
27/10:00pm 8.2 7.2 5.7 84 1.1 CALM 0 0 0 0 1022.7 1022.7 0.0
27/09:30pm 8.8 7.1 5.9 82 1.3 WNW 4 7 2 4 1023.1 - 0.0
27/09:00pm 9.0 7.2 5.6 79 1.5 NW 4 7 2 4 1023.2 1023.3 0.0
27/08:30pm 9.7 7.8 6.6 81 1.4 WNW 6 7 3 4 1023.4 - 0.0
27/08:00pm 11.1 9.2 6.6 74 2.1 W 6 11 3 6 1023.3 1023.4 0.0
27/07:30pm 12.5 10.4 6.8 68 2.7 SSE 7 9 4 5 1023.2 - 0.0
27/07:00pm 13.2 10.8 6.8 65 3.1 S 9 13 5 7 1023.2 1023.3 0.0
27/06:30pm 12.4 10.4 7.3 71 2.5 NW 7 20 4 11 1022.4 - 0.0
27/06:00pm 13.7 12.9 6.6 62 3.4 CALM 0 0 0 0 1021.9 1021.9 0.0
27/05:30pm 15.2 13.9 6.0 54 4.4 NNE 2 6 1 3 1021.7 - 0.0
27/05:00pm 17.4 15.3 6.0 47 5.5 NE 6 7 3 4 1021.4 1021.4 0.0
27/04:30pm 18.6 15.9 5.5 42 6.4 ENE 9 9 5 5 1021.1 - 0.0
27/04:00pm 19.3 16.6 5.7 41 6.7 ENE 9 13 5 7 1021.0 1021.0 0.0
27/03:30pm 19.7 17.0 5.7 40 6.9 NE 9 15 5 8 1021.0 - 0.0
27/03:00pm 19.8 16.7 5.5 39 7.0 NE 11 17 6 9 1021.0 1021.0 0.0
27/02:30pm 19.9 17.7 5.2 38 7.2 NE 6 9 3 5 1021.2 - 0.0
27/02:00pm 19.5 17.5 6.3 42 6.6 S 6 11 3 6 1021.5 1021.5 0.0
27/01:30pm 18.9 16.2 5.4 41 6.6 SSW 9 15 5 8 1021.6 - 0.0
27/01:00pm 18.6 16.4 5.5 42 6.4 SW 6 13 3 7 1022.0 1022.0 0.0
27/12:30pm 18.1 15.9 5.3 43 6.2 NNW 6 9 3 5 1022.6 - 0.0
27/12:00pm 17.4 15.2 6.3 48 5.4 S 7 11 4 6 1023.3 1023.4 0.0
27/11:30am 16.3 14.7 6.4 52 4.8 SE 4 7 2 4 1024.1 - 0.0
27/11:00am 15.3 13.3 7.1 58 4.0 E 7 9 4 5 1024.6 1024.7 0.0
27/10:30am 13.7 12.1 8.1 69 2.8 ENE 6 9 3 5 1024.9 - 0.0
27/10:00am 11.9 10.4 8.4 79 1.7 N 6 7 3 4 1025.4 1025.5 0.0
27/09:30am 9.8 9.1 6.9 82 1.4 CALM 0 0 0 0 1025.4 - 0.0
27/09:00am 8.6 7.8 6.6 87 0.9 CALM 0 0 0 0 1024.9 1025.0 1.6
27/08:30am 6.5 5.1 5.5 93 0.4 SSE 2 7 1 4 1024.8 - 1.6
27/08:00am 4.4 2.7 4.1 98 0.1 S 2 6 1 3 1024.7 1024.8 1.6
27/07:30am 2.8 1.2 2.5 98 0.1 CALM 0 0 0 0 1024.4 - 1.6
27/07:00am 2.0 0.3 1.7 98 0.1 CALM 0 0 0 0 1024.3 1024.4 1.6
27/06:34am 2.0 0.3 1.6 97 0.2 CALM 0 0 0 0 1024.0 - 1.6
27/06:30am 2.1 0.4 1.8 98 0.1 CALM 0 0 0 0 1024.0 - 1.6
27/06:24am 2.0 0.3 1.7 98 0.1 CALM 0 0 0 0 1024.0 - 1.6
27/06:06am 2.9 1.3 2.6 98 0.1 CALM 0 0 0 0 1023.8 - 1.6
27/06:00am 2.5 0.9 2.2 98 0.1 CALM 0 0 0 0 1023.6 1023.7 1.6
27/05:30am 2.9 1.3 2.6 98 0.1 CALM 0 0 0 0 1023.2 - 1.6
27/05:27am 2.7 1.1 2.4 98 0.1 CALM 0 0 0 0 1023.2 - 1.6
27/05:22am 2.7 1.1 2.4 98 0.1 CALM 0 0 0 0 1023.2 - 1.6
27/05:00am 3.3 1.8 3.0 98 0.1 CALM 0 0 0 0 1023.2 1023.3 1.6
27/04:42am 2.9 0.9 2.5 97 0.2 E 2 6 1 3 1023.1 - 1.6
27/04:30am 3.9 1.4 3.6 98 0.1 E 6 7 3 4 1023.2 - 1.6
27/04:00am 3.6 2.2 3.3 98 0.1 CALM 0 6 0 3 1023.0 1023.1 1.6
27/03:52am 3.3 1.0 3.0 98 0.1 E 4 7 2 4 1023.0 - 1.6
27/03:42am 4.2 2.5 3.9 98 0.1 E 2 6 1 3 1023.0 - 1.6
27/03:30am 4.1 2.7 3.8 98 0.1 CALM 0 0 0 0 1023.1 - 1.6
27/03:07am 3.3 1.8 3.0 98 0.1 CALM 0 6 0 3 1023.1 - 1.6
27/03:05am 4.1 2.7 3.8 98 0.1 CALM 0 0 0 0 1023.1 - 1.6
27/03:00am 3.6 1.8 3.2 97 0.2 ENE 2 6 1 3 1023.2 1023.3 1.6
27/02:30am 4.3 1.8 4.0 98 0.1 E 6 9 3 5 1023.3 - 1.6
27/02:00am 3.9 2.5 3.5 97 0.2 CALM 0 0 0 0 1023.4 1023.5 1.6
27/01:59am 4.0 2.6 3.7 98 0.1 CALM 0 0 0 0 1023.4 - 1.6
27/01:39am 4.5 3.2 4.2 98 0.1 CALM 0 0 0 0 1023.4 - 1.6
27/01:36am 4.4 3.1 4.0 97 0.2 CALM 0 0 0 0 1023.4 - 1.6
27/01:30am 4.5 3.2 4.1 97 0.2 CALM 0 0 0 0 1023.4 - 1.6
27/01:29am 4.5 3.2 3.9 96 0.3 CALM 0 0 0 0 1023.4 - 1.6
27/01:00am 5.0 3.7 4.1 94 0.4 CALM 0 0 0 0 1023.3 1023.4 1.6
27/12:30am 5.5 4.3 4.8 95 0.3 CALM 0 0 0 0 1023.4 - 1.6
27/12:00am 6.0 4.8 4.6 91 0.6 CALM 0 0 0 0 1023.4 1023.5 1.6
 
Date/Time
EST
Temp
°C
App
Temp
°C
Dew
Point
Rel
Hum
%
Delta-T
°C
Wind Press
QNH
hPa
Press
MSL
hPa
Rain
since 9 am
mm
Dir
 
Spd
km/h
Gust
km/h
Spd
kts
Gust
kts
26/11:30pm 6.6 5.6 5.4 92 0.5 CALM 0 6 0 3 1023.5 - 1.6
26/11:00pm 6.9 4.8 5.8 93 0.5 NW 6 7 3 4 1023.6 1023.7 1.6
26/10:30pm 7.6 6.6 5.7 88 0.9 CALM 0 0 0 0 1023.7 - 1.6
26/10:00pm 8.3 7.5 6.3 87 0.9 CALM 0 6 0 3 1023.7 1023.8 1.6
26/09:30pm 9.1 6.7 6.9 86 1.0 NNW 9 11 5 6 1023.6 - 1.6
26/09:00pm 8.3 6.2 5.9 85 1.1 W 6 9 3 5 1023.6 1023.7 1.6
26/08:30pm 9.7 7.9 8.1 90 0.8 W 7 9 4 5 1023.4 - 1.6
26/08:00pm 10.6 8.5 8.2 85 1.2 WSW 9 13 5 7 1023.2 1023.3 1.6
26/07:30pm 11.0 9.0 8.6 85 1.2 W 9 13 5 7 1023.0 - 1.6
26/07:00pm 12.3 11.0 9.9 85 1.2 W 7 9 4 5 1022.8 1022.9 1.6
26/06:30pm 12.8 11.3 9.3 79 1.8 S 7 11 4 6 1022.5 - 1.6
26/06:00pm 13.6 13.7 10.2 80 1.8 CALM 0 6 0 3 1022.0 1022.0 1.6
26/05:30pm 14.3 13.0 9.9 75 2.3 S 7 9 4 5 1021.5 - 1.6
26/05:00pm 15.5 13.7 9.6 68 3.0 NE 9 11 5 6 1021.1 1021.1 1.6
26/04:30pm 17.5 16.1 9.7 60 4.1 NNE 7 9 4 5 1020.9 - 1.6
26/04:00pm 18.1 16.1 10.0 59 4.3 NE 11 15 6 8 1020.7 1020.7 1.6
26/03:30pm 18.4 16.7 10.0 58 4.5 ENE 9 11 5 6 1020.7 - 1.6
26/03:00pm 18.1 16.7 11.0 63 3.8 SE 9 13 5 7 1020.9 1020.9 1.6
26/02:30pm 17.7 17.9 11.7 68 3.3 N 2 6 1 3 1020.5 - 1.6
26/02:00pm 17.8 17.8 11.1 65 3.6 W 2 7 1 4 1020.4 1020.4 1.6
26/01:30pm 17.4 16.9 11.9 70 3.0 N 6 9 3 5 1020.7 - 1.6
26/01:00pm 16.4 16.6 12.0 75 2.4 NNE 2 6 1 3 1021.0 1021.0 1.6
26/12:30pm 15.4 15.7 12.2 81 1.7 NNW 2 7 1 4 1021.9 - 1.6
26/12:00pm 13.6 13.1 12.5 93 0.6 NNE 7 11 4 6 1022.5 1022.5 1.6
26/11:30am 13.0 12.4 12.2 95 0.4 NNE 7 11 4 6 1022.9 - 1.6
26/11:00am 12.4 11.8 11.8 96 0.3 SW 6 11 3 6 1023.6 1023.7 1.6
26/10:30am 12.3 11.5 11.7 96 0.3 NW 7 11 4 6 1024.1 - 1.2
26/10:00am 12.0 10.8 11.5 97 0.3 NE 9 19 5 10 1024.3 1024.4 1.2
26/09:50am 11.9 9.9 11.4 97 0.3 NNE 13 20 7 11 1024.1 - 1.2
26/09:30am 11.9 10.7 11.6 98 0.2 NNW 9 13 5 7 1024.9 - 0.6
26/09:27am 11.8 10.6 11.5 98 0.2 NNW 9 13 5 7 1025.0 - 0.4
26/09:11am 12.0 12.0 11.2 95 0.4 ESE 2 7 1 4 1024.5 - 0.0
26/09:00am 11.9 12.0 11.4 97 0.3 ESE 2 7 1 4 1024.3 1024.4 -
26/08:30am 11.6 9.9 11.3 98 0.2 WSW 11 15 6 8 1024.9 - -
26/08:18am 11.6 9.9 11.3 98 0.2 SSW 11 17 6 9 1024.6 - -
26/08:10am 11.6 9.5 11.3 98 0.2 SW 13 17 7 9 1024.5 - -
26/08:00am 11.7 10.4 11.4 98 0.2 SSW 9 19 5 10 1024.4 1024.5 -
26/07:30am 11.4 10.1 11.1 98 0.2 SSW 9 13 5 7 1023.8 - -
26/07:29am 11.4 10.1 11.1 98 0.2 SSW 9 13 5 7 1023.8 - -
26/07:15am 11.2 9.0 10.9 98 0.2 SSW 13 17 7 9 1023.8 - -
26/07:00am 11.1 10.0 10.8 98 0.2 S 7 11 4 6 1023.6 1023.7 -
26/06:41am 11.4 10.9 10.9 97 0.3 SSW 4 7 2 4 1023.6 - -
26/06:30am 11.8 11.1 11.5 98 0.2 NE 6 9 3 5 1023.7 - -
26/06:00am 11.6 10.8 11.1 97 0.3 NE 6 7 3 4 1023.3 1023.4 -
26/05:30am 11.6 10.5 10.8 95 0.4 ENE 7 7 4 4 1023.0 - -
26/05:00am 11.6 10.1 10.7 94 0.5 ENE 9 11 5 6 1022.7 1022.7 -

Other Formats:

Comma delimited format used in spreadsheet applications
http://www.bom.gov.au/fwo/IDN60801/IDN60801.95753.axf

JavaScript Object Notation format (JSON) in row-major order
http://www.bom.gov.au/fwo/IDN60801/IDN60801.95753.json